Time;durP1;ratioP1;P1;durP2;ratioP2;P2;SDS_P1;SDS_P2;PMS_P1;PMS_P2;Temp;Humidity;BMP_temperature;BMP_pressure;BME280_temperature;BME280_humidity;BME280_pressure;Samples;Min_cycle;Max_cycle;Signal;HPM_P1;HPM_P2
2024/01/16 05:46:48;;;;;;;5.60;1.67;;;;;;;0.31;100.00;100577.91;5563683;24;20569;-76
2024/01/16 05:49:13;;;;;;;3.75;1.30;;;;;;;0.30;100.00;100592.81;4781883;29;20058;-76
2024/01/16 05:51:41;;;;;;;3.17;1.60;;;;;;;0.38;100.00;100586.50;4785740;29;20035;-76
2024/01/16 05:54:06;;;;;;;5.10;1.73;;;;;;;0.20;100.00;100580.91;4785391;29;20062;-76
2024/01/16 05:56:32;;;;;;;2.97;1.40;;;;;;;0.13;100.00;100577.81;4800116;29;20490;-76
2024/01/16 05:58:57;;;;;;;4.05;1.83;;;;;;;0.19;100.00;100582.06;4782703;29;20031;-77
2024/01/16 06:01:22;;;;;;;2.25;1.60;;;;;;;0.18;100.00;100574.91;4782360;30;20058;-76
2024/01/16 06:03:48;;;;;;;3.25;1.80;;;;;;;0.31;100.00;100575.94;4781378;29;20065;-76
2024/01/16 06:06:14;;;;;;;5.80;2.03;;;;;;;0.44;100.00;100582.50;4782674;29;20487;-76
2024/01/16 06:08:39;;;;;;;5.28;1.75;;;;;;;0.37;100.00;100582.16;4786846;29;20047;-78
2024/01/16 06:11:05;;;;;;;3.50;1.63;;;;;;;0.34;100.00;100582.78;4777621;29;20465;-76
2024/01/16 06:13:31;;;;;;;7.57;2.80;;;;;;;0.29;100.00;100574.66;4783302;29;20477;-78
2024/01/16 06:15:57;;;;;;;3.97;1.90;;;;;;;0.43;100.00;100580.06;4783213;29;20046;-77
2024/01/16 06:18:23;;;;;;;5.20;2.08;;;;;;;0.27;100.00;100582.41;4785306;29;20031;-77
2024/01/16 06:20:48;;;;;;;4.30;2.17;;;;;;;0.25;100.00;100579.16;4778714;29;20027;-77
2024/01/16 06:23:13;;;;;;;4.60;2.00;;;;;;;0.30;100.00;100587.31;4782134;29;20039;-76
2024/01/16 06:25:39;;;;;;;5.82;2.55;;;;;;;0.24;100.00;100588.56;4771730;29;20463;-76
2024/01/16 06:28:05;;;;;;;5.57;2.50;;;;;;;0.22;100.00;100582.56;4778379;29;20086;-76
2024/01/16 06:30:30;;;;;;;8.55;2.92;;;;;;;0.26;100.00;100580.81;4778857;29;20046;-76
2024/01/16 06:32:56;;;;;;;5.35;2.72;;;;;;;0.31;100.00;100577.91;4775787;29;20040;-77
2024/01/16 06:35:23;;;;;;;6.75;2.35;;;;;;;0.39;100.00;100580.69;4784098;29;20398;-76
2024/01/16 06:37:49;;;;;;;3.15;1.95;;;;;;;0.36;100.00;100575.84;4781032;29;20087;-77
2024/01/16 06:40:14;;;;;;;6.60;3.58;;;;;;;0.36;100.00;100586.84;4778116;29;20444;-78
2024/01/16 06:42:39;;;;;;;7.03;2.53;;;;;;;0.45;100.00;100586.88;4781030;29;20035;-77
2024/01/16 06:45:05;;;;;;;3.42;2.17;;;;;;;2.86;100.00;100590.25;4778302;29;20027;-75
2024/01/16 06:47:31;;;;;;;6.88;2.78;;;;;;;0.79;100.00;100599.19;4768179;29;20056;-78
2024/01/16 06:49:56;;;;;;;5.10;2.53;;;;;;;0.60;100.00;100593.91;4761033;29;20036;-77
2024/01/16 06:52:25;;;;;;;4.05;2.10;;;;;;;0.59;100.00;100587.59;4762316;30;20040;-78
2024/01/16 06:54:50;;;;;;;3.67;1.88;;;;;;;0.58;100.00;100588.72;4763475;30;20483;-78
2024/01/16 06:57:15;;;;;;;5.97;2.20;;;;;;;0.48;100.00;100585.44;4761651;30;20050;-77
2024/01/16 06:59:41;;;;;;;4.90;2.20;;;;;;;0.48;100.00;100590.94;4771134;29;20037;-76
2024/01/16 07:02:07;;;;;;;3.05;1.77;;;;;;;0.55;100.00;100591.31;4767381;30;20043;-75
2024/01/16 07:04:33;;;;;;;5.28;2.70;;;;;;;0.44;100.00;100590.75;4755846;30;20549;-76
2024/01/16 07:06:59;;;;;;;9.52;2.42;;;;;;;0.55;100.00;100594.88;4757523;30;20032;-76
2024/01/16 07:09:25;;;;;;;4.53;2.80;;;;;;;0.50;100.00;100586.72;4756210;30;20063;-76
2024/01/16 07:11:50;;;;;;;3.58;1.95;;;;;;;0.98;100.00;100596.97;4759075;30;20068;-77
2024/01/16 07:14:16;;;;;;;6.78;2.88;;;;;;;0.75;100.00;100596.25;4747617;30;20036;-78
2024/01/16 07:16:41;;;;;;;6.38;2.70;;;;;;;0.68;100.00;100597.84;4755067;30;20046;-77
2024/01/16 07:19:06;;;;;;;3.45;2.28;;;;;;;0.65;100.00;100599.28;4762819;30;20400;-78
2024/01/16 07:21:32;;;;;;;7.80;3.33;;;;;;;0.73;100.00;100601.25;4758746;30;20046;-76
2024/01/16 07:23:57;;;;;;;7.82;3.13;;;;;;;0.44;100.00;100604.53;4757526;30;20032;-78
2024/01/16 07:26:23;;;;;;;5.45;2.60;;;;;;;0.51;100.00;100602.16;4764118;29;20039;-77
2024/01/16 07:28:49;;;;;;;6.68;3.35;;;;;;;0.48;100.00;100605.50;4758228;30;20051;-77
2024/01/16 07:31:17;;;;;;;6.20;3.38;;;;;;;0.34;100.00;100611.13;4753738;30;20032;-76
2024/01/16 07:33:43;;;;;;;10.55;3.30;;;;;;;0.55;100.00;100605.09;4761280;30;20043;-75
2024/01/16 07:36:09;;;;;;;7.45;3.75;;;;;;;0.82;100.00;100615.06;4759301;30;20031;-75
2024/01/16 07:38:36;;;;;;;11.30;4.10;;;;;;;0.63;100.00;100614.50;4760625;30;20027;-75
2024/01/16 07:41:02;;;;;;;8.15;3.25;;;;;;;0.94;100.00;100612.50;4756216;30;20032;-75
2024/01/16 07:43:29;;;;;;;3.03;2.70;;;;;;;0.70;100.00;100612.13;4760686;30;20093;-78
2024/01/16 07:45:55;;;;;;;7.30;3.97;;;;;;;0.56;100.00;100613.00;4765391;30;20042;-78
2024/01/16 07:48:20;;;;;;;10.02;3.25;;;;;;;0.39;100.00;100618.44;4764663;30;20460;-78
2024/01/16 07:50:45;;;;;;;4.15;3.05;;;;;;;0.37;100.00;100626.19;4761271;30;20123;-77
2024/01/16 07:53:11;;;;;;;8.40;3.25;;;;;;;0.51;100.00;100618.66;4757400;30;20041;-76
2024/01/16 07:55:36;;;;;;;11.95;4.00;;;;;;;0.52;100.00;100614.78;4762306;30;20031;-76
2024/01/16 07:58:03;;;;;;;6.50;3.25;;;;;;;0.44;100.00;100614.72;4759268;30;20154;-76
2024/01/16 08:00:29;;;;;;;6.43;3.55;;;;;;;0.56;100.00;100612.19;4760772;30;20082;-75
2024/01/16 08:02:54;;;;;;;5.57;2.95;;;;;;;0.35;100.00;100617.44;4762596;30;20523;-75
2024/01/16 08:05:21;;;;;;;6.30;3.33;;;;;;;0.60;100.00;100614.00;4759991;30;20032;-76
2024/01/16 08:07:47;;;;;;;3.67;2.97;;;;;;;0.64;100.00;100627.16;4758406;30;20043;-76
2024/01/16 08:10:12;;;;;;;10.45;4.13;;;;;;;0.52;100.00;100627.72;4761251;30;20039;-76
2024/01/16 08:12:37;;;;;;;7.70;3.92;;;;;;;0.37;100.00;100620.69;4754029;30;20106;-76
2024/01/16 08:15:04;;;;;;;11.20;3.47;;;;;;;0.45;100.00;100619.94;4755603;30;20036;-76
2024/01/16 08:17:30;;;;;;;8.45;3.85;;;;;;;0.42;100.00;100628.00;4759315;30;20043;-75
2024/01/16 08:19:55;;;;;;;11.57;4.85;;;;;;;0.44;100.00;100629.31;4760449;30;20118;-76
2024/01/16 08:22:20;;;;;;;8.00;3.78;;;;;;;0.37;100.00;100621.50;4759890;30;20472;-76
2024/01/16 08:24:46;;;;;;;4.00;3.47;;;;;;;0.44;100.00;100632.06;4761425;30;20486;-76
2024/01/16 08:27:12;;;;;;;7.32;3.40;;;;;;;0.46;100.00;100629.00;4761145;30;20031;-76
2024/01/16 08:29:37;;;;;;;4.95;3.42;;;;;;;0.51;100.00;100631.63;4753494;30;20047;-76
2024/01/16 08:32:04;;;;;;;4.82;3.00;;;;;;;0.35;100.00;100634.75;4757918;30;20506;-76
2024/01/16 08:34:29;;;;;;;7.70;3.85;;;;;;;0.51;100.00;100629.69;4760445;30;20042;-76
2024/01/16 08:36:56;;;;;;;7.07;3.80;;;;;;;0.43;100.00;100630.44;4764958;30;20503;-76
2024/01/16 08:39:23;;;;;;;6.63;3.35;;;;;;;0.55;100.00;100633.44;4764367;30;20529;-77
2024/01/16 08:41:49;;;;;;;9.88;3.67;;;;;;;0.64;100.00;100630.72;4764559;30;20067;-76
2024/01/16 08:44:14;;;;;;;5.90;3.15;;;;;;;0.56;100.00;100635.03;4761455;30;20119;-76
2024/01/16 08:46:40;;;;;;;7.50;3.30;;;;;;;0.53;100.00;100637.63;4760151;30;20059;-76
2024/01/16 08:49:05;;;;;;;4.45;2.80;;;;;;;0.51;100.00;100637.94;4765593;30;20093;-78
2024/01/16 08:51:30;;;;;;;3.67;2.55;;;;;;;0.59;100.00;100634.44;4761515;30;20451;-77
2024/01/16 08:53:56;;;;;;;4.10;2.50;;;;;;;0.53;100.00;100641.19;4761778;30;21228;-79
2024/01/16 08:56:22;;;;;;;4.85;2.42;;;;;;;0.65;100.00;100637.84;4763464;30;20521;-78
2024/01/16 08:58:47;;;;;;;6.38;2.38;;;;;;;0.56;100.00;100635.03;4762911;30;20015;-80
2024/01/16 09:01:12;;;;;;;8.02;2.72;;;;;;;0.65;100.00;100637.03;4759475;30;20055;-81
2024/01/16 09:03:38;;;;;;;3.42;2.50;;;;;;;0.55;100.00;100638.94;4760517;30;20044;-79
2024/01/16 09:06:03;;;;;;;3.95;2.25;;;;;;;0.64;100.00;100638.97;4764005;30;20042;-79
2024/01/16 09:08:29;;;;;;;9.70;2.65;;;;;;;0.52;100.00;100645.06;4760323;30;20075;-78
2024/01/16 09:10:54;;;;;;;5.20;2.20;;;;;;;0.67;100.00;100640.28;4761382;30;20376;-78
2024/01/16 09:13:20;;;;;;;6.55;2.42;;;;;;;0.64;100.00;100638.16;4760840;30;20078;-79
2024/01/16 09:15:49;;;;;;;7.18;2.13;;;;;;;0.67;100.00;100634.78;4762290;30;20047;-78
2024/01/16 09:18:17;;;;;;;4.10;3.05;;;;;;;0.71;100.00;100639.31;4763057;30;20050;-76
2024/01/16 09:20:43;;;;;;;5.55;2.38;;;;;;;0.68;100.00;100648.22;4762340;30;20028;-77
2024/01/16 09:23:09;;;;;;;6.30;2.70;;;;;;;0.62;100.00;100637.69;4764010;30;20054;-76
2024/01/16 09:25:34;;;;;;;4.25;1.80;;;;;;;0.72;100.00;100642.91;4760663;30;20035;-76
2024/01/16 09:28:00;;;;;;;5.70;2.85;;;;;;;0.81;100.00;100646.50;4759084;30;20038;-77
2024/01/16 09:30:26;;;;;;;2.65;2.10;;;;;;;0.75;100.00;100645.81;4764980;30;20083;-78
2024/01/16 09:32:51;;;;;;;7.25;1.85;;;;;;;0.74;100.00;100648.91;4758750;30;20047;-78
2024/01/16 09:35:16;;;;;;;2.85;1.52;;;;;;;0.70;100.00;100653.44;4760317;30;20071;-79
2024/01/16 09:37:42;;;;;;;5.93;2.47;;;;;;;0.68;100.00;100644.69;4758070;30;20539;-78
2024/01/16 09:40:08;;;;;;;6.30;2.10;;;;;;;0.74;100.00;100646.16;4761559;30;20038;-78
2024/01/16 09:42:34;;;;;;;6.30;2.05;;;;;;;0.66;100.00;100646.94;4760507;30;20032;-79
2024/01/16 09:45:04;;;;;;;8.23;2.90;;;;;;;0.69;100.00;100646.28;4760931;30;20047;-78
2024/01/16 09:47:34;;;;;;;2.58;1.83;;;;;;;0.88;100.00;100641.34;4764306;30;20056;-78
2024/01/16 09:50:03;;;;;;;4.05;2.25;;;;;;;0.77;100.00;100646.31;4758538;30;20125;-78
2024/01/16 09:52:29;;;;;;;7.97;2.78;;;;;;;0.80;100.00;100650.38;4759806;30;20592;-79
2024/01/16 09:54:56;;;;;;;3.25;2.67;;;;;;;0.74;100.00;100657.19;4759080;30;20118;-77
2024/01/16 09:57:24;;;;;;;3.97;2.85;;;;;;;0.78;100.00;100650.72;4757385;30;20036;-78
2024/01/16 09:59:51;;;;;;;7.45;3.17;;;;;;;0.86;100.00;100645.56;4758927;30;20044;-76
2024/01/16 10:02:18;;;;;;;4.40;2.80;;;;;;;0.72;100.00;100645.66;4763441;30;20537;-76
2024/01/16 10:04:44;;;;;;;7.93;2.95;;;;;;;0.84;100.00;100634.84;4759304;30;20042;-76
2024/01/16 10:07:11;;;;;;;6.35;3.63;;;;;;;0.92;100.00;100647.84;4764692;30;20433;-78
2024/01/16 10:09:38;;;;;;;6.40;3.83;;;;;;;0.83;100.00;100638.75;4763372;30;20043;-78
2024/01/16 10:12:04;;;;;;;8.80;4.15;;;;;;;0.87;100.00;100647.19;4761950;30;20074;-77
2024/01/16 10:14:29;;;;;;;4.85;3.25;;;;;;;0.89;100.00;100637.47;4759348;30;20075;-76
2024/01/16 10:17:05;;;;;;;10.40;3.90;;;;;;;0.95;100.00;100638.13;4765458;30;20042;-78
2024/01/16 10:19:31;;;;;;;9.70;4.55;;;;;;;0.89;100.00;100637.47;4761998;30;20441;-78
2024/01/16 10:22:04;;;;;;;5.25;3.78;;;;;;;0.97;100.00;100631.19;4763210;30;20486;-78
2024/01/16 10:24:30;;;;;;;8.50;4.00;;;;;;;0.83;100.00;100627.72;4762622;30;20035;-76
2024/01/16 10:27:03;;;;;;;6.88;4.30;;;;;;;1.02;100.00;100633.78;4765389;30;20032;-77
2024/01/16 10:29:28;;;;;;;;;;;;;;;1.17;100.00;100626.19;4762757;30;20032;-78
2024/01/16 10:31:54;;;;;;;8.25;4.50;;;;;;;1.15;100.00;100622.94;4765379;30;19933;-78
2024/01/16 10:34:23;;;;;;;10.23;5.10;;;;;;;1.16;100.00;100625.41;4763314;30;20047;-78
2024/01/16 10:36:51;;;;;;;10.23;5.70;;;;;;;1.17;100.00;100623.44;4758504;30;20043;-77
2024/01/16 10:39:16;;;;;;;10.95;6.00;;;;;;;1.22;100.00;100612.25;4760493;30;20100;-78
2024/01/16 10:41:53;;;;;;;13.15;6.25;;;;;;;1.18;100.00;100611.28;4758611;30;20530;-77
2024/01/16 10:44:18;;;;;;;11.30;5.50;;;;;;;1.19;100.00;100612.91;4758633;30;20067;-79
2024/01/16 10:46:44;;;;;;;11.02;5.72;;;;;;;1.28;100.00;100610.16;4766877;30;20176;-78
2024/01/16 10:49:10;;;;;;;14.00;5.53;;;;;;;1.38;100.00;100604.34;4761896;30;20117;-77
2024/01/16 10:51:36;;;;;;;10.45;5.68;;;;;;;1.54;100.00;100607.44;4757166;30;20070;-78
2024/01/16 10:54:08;;;;;;;13.85;6.18;;;;;;;1.53;100.00;100600.31;4757721;30;20058;-77
2024/01/16 10:56:34;;;;;;;10.70;7.00;;;;;;;1.55;100.00;100612.63;4754759;30;20430;-77
2024/01/16 10:59:20;;;;;;;10.77;6.25;;;;;;;1.35;100.00;100608.56;4763001;30;20036;-76
2024/01/16 11:01:51;;;;;;;13.73;6.90;;;;;;;1.44;100.00;100603.06;4771653;29;20040;-76
2024/01/16 11:04:18;;;;;;;9.68;5.95;;;;;;;1.27;100.00;100609.34;4759068;30;20398;-76
2024/01/16 11:06:44;;;;;;;10.43;5.07;;;;;;;1.33;100.00;100601.72;4758734;30;20043;-76
2024/01/16 11:09:12;;;;;;;8.80;5.47;;;;;;;1.37;100.00;100602.69;4762162;30;20036;-76
2024/01/16 11:11:39;;;;;;;12.45;6.50;;;;;;;1.35;100.00;100599.47;4758886;30;20032;-76
2024/01/16 11:14:06;;;;;;;8.90;5.63;;;;;;;1.44;100.00;100607.75;4761568;30;20036;-76
2024/01/16 11:16:32;;;;;;;16.90;6.60;;;;;;;1.34;100.00;100606.13;4764692;30;20050;-76
2024/01/16 11:18:58;;;;;;;9.70;5.57;;;;;;;1.25;100.00;100606.09;4763040;30;20558;-76
2024/01/16 11:21:25;;;;;;;10.80;5.47;;;;;;;1.37;100.00;100592.50;4758162;30;20427;-76
2024/01/16 11:23:51;;;;;;;8.52;4.15;;;;;;;1.26;100.00;100602.22;4763186;30;20119;-78
2024/01/16 11:26:32;;;;;;;8.05;4.68;;;;;;;1.43;100.00;100598.66;4763655;30;20464;-78
2024/01/16 11:28:59;;;;;;;8.38;4.78;;;;;;;1.41;100.00;100596.25;4763980;30;20042;-77
2024/01/16 11:31:35;;;;;;;7.70;5.43;;;;;;;1.35;100.00;100594.78;4767431;29;20077;-77
2024/01/16 11:34:02;;;;;;;12.40;5.38;;;;;;;1.43;100.00;100579.34;4753998;30;20522;-76
2024/01/16 11:36:44;;;;;;;8.80;4.53;;;;;;;1.42;100.00;100586.00;4758011;30;20050;-76
2024/01/16 11:39:16;;;;;;;7.47;4.22;;;;;;;1.33;100.00;100574.97;4752571;30;20100;-76
2024/01/16 11:41:57;;;;;;;15.00;4.65;;;;;;;1.50;100.00;100576.13;4756016;30;20578;-76
2024/01/16 11:44:54;;;;;;;8.75;4.85;;;;;;;1.36;100.00;100574.31;4762876;30;20050;-78
2024/01/16 11:47:21;;;;;;;7.72;4.65;;;;;;;1.47;100.00;100582.28;4754573;30;20124;-77
2024/01/16 11:49:47;;;;;;;6.57;3.72;;;;;;;1.46;100.00;100573.19;4762437;30;20548;-77
2024/01/16 11:52:14;;;;;;;15.43;4.78;;;;;;;1.69;100.00;100571.09;4760315;30;20105;-77
2024/01/16 11:54:41;;;;;;;10.50;4.30;;;;;;;1.63;100.00;100572.41;4761702;30;20067;-76
2024/01/16 11:58:05;;;;;;;6.95;4.45;;;;;;;1.73;100.00;100572.06;4760636;30;20078;-79
2024/01/16 12:00:32;;;;;;;9.15;4.00;;;;;;;1.77;100.00;100561.16;4760415;30;20475;-76
2024/01/16 12:03:03;;;;;;;7.03;3.85;;;;;;;1.56;100.00;100555.50;4761197;30;20129;-76
2024/01/16 12:05:28;;;;;;;11.00;3.72;;;;;;;1.49;100.00;100549.66;4760514;30;20032;-76
2024/01/16 12:07:54;;;;;;;6.68;3.75;;;;;;;1.59;100.00;100538.31;4757843;30;20391;-75
2024/01/16 12:10:22;;;;;;;7.25;3.60;;;;;;;1.80;100.00;100542.03;4758305;30;20629;-76
2024/01/16 12:12:49;;;;;;;5.40;3.83;;;;;;;1.67;100.00;100540.25;4758674;30;20059;-76
2024/01/16 12:15:19;;;;;;;7.95;4.10;;;;;;;1.79;100.00;100543.16;4763124;30;20047;-75
2024/01/16 12:17:52;;;;;;;5.53;2.90;;;;;;;1.75;100.00;100546.88;4756501;30;20126;-76
2024/01/16 12:20:18;;;;;;;10.95;3.25;;;;;;;1.69;100.00;100537.97;4772865;29;20020;-76
2024/01/16 12:22:44;;;;;;;5.22;2.58;;;;;;;1.68;100.00;100541.88;4763075;30;20039;-77
2024/01/16 12:25:10;;;;;;;5.55;3.13;;;;;;;1.70;100.00;100534.06;4757126;30;20113;-76
2024/01/16 12:27:36;;;;;;;5.95;3.67;;;;;;;1.64;100.00;100532.63;4756101;30;20043;-75
2024/01/16 12:30:07;;;;;;;7.22;3.33;;;;;;;1.37;100.00;100540.09;4760274;30;20519;-76
2024/01/16 12:32:32;;;;;;;4.38;2.47;;;;;;;1.36;100.00;100535.72;4757446;30;20048;-76
2024/01/16 12:34:58;;;;;;;4.88;3.00;;;;;;;1.49;100.00;100533.13;4777041;29;20043;-75
2024/01/16 12:37:23;;;;;;;3.20;2.03;;;;;;;1.51;100.00;100525.34;4762491;30;20028;-75
2024/01/16 12:39:51;;;;;;;4.85;2.15;;;;;;;1.57;100.00;100519.31;4760026;30;20028;-75
2024/01/16 12:42:18;;;;;;;6.10;2.92;;;;;;;1.49;100.00;100522.09;4752205;30;20040;-75
2024/01/16 12:44:43;;;;;;;8.02;2.35;;;;;;;1.44;100.00;100519.50;4762572;30;20443;-75
2024/01/16 12:47:09;;;;;;;6.28;2.83;;;;;;;1.52;100.00;100510.41;4758303;30;20048;-76
2024/01/16 12:49:41;;;;;;;3.92;2.30;;;;;;;1.39;100.00;100514.94;4764857;30;20075;-76
2024/01/16 12:52:24;;;;;;;2.92;2.47;;;;;;;1.44;100.00;100512.03;4758308;30;20479;-75
2024/01/16 12:55:00;;;;;;;3.70;2.08;;;;;;;1.40;100.00;100520.16;4757604;30;20039;-76
2024/01/16 12:57:26;;;;;;;4.43;2.25;;;;;;;1.42;100.00;100517.06;4761964;30;20032;-76
2024/01/16 12:59:51;;;;;;;2.58;1.55;;;;;;;2.05;100.00;100517.47;4765884;30;20059;-75
2024/01/16 13:02:25;;;;;;;4.82;2.40;;;;;;;2.95;100.00;100512.81;4762507;30;20043;-76
2024/01/16 13:05:02;;;;;;;5.70;2.33;;;;;;;1.97;100.00;100521.06;4759081;30;20031;-76
2024/01/16 13:07:30;;;;;;;2.95;2.03;;;;;;;1.59;100.00;100510.72;4753050;30;20047;-75
2024/01/16 13:10:15;;;;;;;2.25;1.83;;;;;;;1.39;100.00;100513.03;4755277;30;20031;-72
2024/01/16 13:12:41;;;;;;;2.40;1.80;;;;;;;1.51;100.00;100514.31;4757175;30;20063;-74
2024/01/16 13:15:07;;;;;;;2.58;1.85;;;;;;;1.51;100.00;100515.09;4760688;30;20082;-72
2024/01/16 13:17:36;;;;;;;3.10;1.92;;;;;;;1.41;100.00;100509.91;4756040;30;20422;-74
2024/01/16 13:20:03;;;;;;;2.95;1.90;;;;;;;1.31;100.00;100504.75;4757497;30;20032;-73
2024/01/16 13:22:28;;;;;;;3.38;1.67;;;;;;;1.27;100.00;100507.34;4761196;30;20508;-72
2024/01/16 13:24:54;;;;;;;2.35;1.77;;;;;;;1.35;100.00;100495.50;4767847;30;20031;-73
2024/01/16 13:27:19;;;;;;;4.00;2.22;;;;;;;1.27;100.00;100506.53;4758676;30;20036;-74
2024/01/16 13:29:45;;;;;;;5.22;2.20;;;;;;;1.33;100.00;100502.44;4767393;30;20040;-75
2024/01/16 13:32:10;;;;;;;4.85;2.15;;;;;;;1.45;100.00;100496.28;4763746;30;20070;-72
2024/01/16 13:34:37;;;;;;;3.15;1.75;;;;;;;1.31;100.00;100489.00;4762275;30;20090;-76
2024/01/16 13:37:04;;;;;;;7.07;1.90;;;;;;;1.30;100.00;100495.66;4766238;30;20426;-76
2024/01/16 13:39:32;;;;;;;4.07;1.50;;;;;;;1.28;100.00;100495.16;4766218;30;20039;-74
2024/01/16 13:41:57;;;;;;;6.40;1.58;;;;;;;1.25;100.00;100484.78;4764790;30;20058;-75
2024/01/16 13:44:23;;;;;;;8.10;1.75;;;;;;;1.32;100.00;100487.84;4765672;30;20048;-73
2024/01/16 13:46:48;;;;;;;3.78;2.22;;;;;;;1.45;100.00;100490.78;4763175;30;20113;-74
2024/01/16 13:49:14;;;;;;;11.57;2.78;;;;;;;1.39;100.00;100484.59;4766779;30;20038;-73
2024/01/16 13:51:40;;;;;;;2.85;2.30;;;;;;;1.37;100.00;100482.19;4762732;30;20078;-74
2024/01/16 13:54:05;;;;;;;3.75;1.77;;;;;;;1.47;100.00;100480.22;4762289;29;20111;-73
2024/01/16 13:56:30;;;;;;;7.30;1.95;;;;;;;1.45;100.00;100477.00;4766672;30;20131;-72
2024/01/16 13:58:56;;;;;;;6.30;2.10;;;;;;;1.56;100.00;100479.09;4761131;30;20586;-78
2024/01/16 14:01:21;;;;;;;5.20;1.77;;;;;;;1.58;100.00;100478.75;4761053;30;20031;-74
2024/01/16 14:03:47;;;;;;;5.65;2.33;;;;;;;1.53;100.00;100481.69;4764999;30;20040;-77
2024/01/16 14:06:13;;;;;;;2.97;1.50;;;;;;;1.48;100.00;100474.41;4764791;29;20469;-73
2024/01/16 14:08:39;;;;;;;10.40;2.72;;;;;;;1.50;100.00;100477.63;4759801;30;20475;-74
2024/01/16 14:11:04;;;;;;;5.25;1.55;;;;;;;1.58;100.00;100470.47;4765469;30;20491;-73
2024/01/16 14:13:29;;;;;;;6.20;2.20;;;;;;;2.34;100.00;100466.16;4763299;30;20066;-72
2024/01/16 14:15:55;;;;;;;3.63;1.63;;;;;;;2.02;100.00;100468.41;4760304;30;20123;-74
2024/01/16 14:18:22;;;;;;;3.50;1.73;;;;;;;1.71;100.00;100472.25;4761757;30;20093;-73
2024/01/16 14:20:48;;;;;;;3.60;1.80;;;;;;;1.69;100.00;100474.53;4758372;30;20028;-74
2024/01/16 14:23:13;;;;;;;4.22;1.48;;;;;;;1.83;100.00;100457.75;4760189;30;20506;-75
2024/01/16 14:25:38;;;;;;;3.35;2.30;;;;;;;1.66;100.00;100472.41;4762619;30;20050;-74
2024/01/16 14:28:04;;;;;;;5.70;1.75;;;;;;;1.66;100.00;100466.09;4761968;30;20046;-73
2024/01/16 14:30:31;;;;;;;4.85;1.95;;;;;;;1.70;100.00;100459.56;4760972;30;20083;-74
2024/01/16 14:32:56;;;;;;;5.88;2.30;;;;;;;1.75;100.00;100464.94;4762335;30;20039;-73
2024/01/16 14:35:23;;;;;;;6.75;2.00;;;;;;;1.69;100.00;100460.72;4766194;30;20738;-74
2024/01/16 14:37:49;;;;;;;8.15;1.83;;;;;;;1.70;100.00;100456.81;4760294;30;20055;-74
2024/01/16 14:40:25;;;;;;;6.13;1.80;;;;;;;1.79;100.00;100454.03;4758485;30;20031;-73
2024/01/16 14:42:54;;;;;;;3.30;1.58;;;;;;;1.71;100.00;100452.94;4761838;30;20031;-72
2024/01/16 14:45:23;;;;;;;6.97;2.05;;;;;;;1.75;100.00;100459.41;4764182;30;20036;-74
2024/01/16 14:47:50;;;;;;;3.80;1.83;;;;;;;1.78;100.00;100455.19;4758745;30;20055;-74
2024/01/16 14:50:17;;;;;;;6.65;1.95;;;;;;;1.82;100.00;100458.91;4759773;30;20519;-74
2024/01/16 14:52:46;;;;;;;3.25;1.73;;;;;;;1.83;100.00;100458.59;4761983;30;20110;-74
2024/01/16 14:55:12;;;;;;;8.73;1.85;;;;;;;1.90;100.00;100457.25;4758038;30;20036;-74
2024/01/16 14:57:41;;;;;;;3.85;2.03;;;;;;;2.01;100.00;100450.25;4760551;30;20551;-74
2024/01/16 15:00:23;;;;;;;8.50;2.13;;;;;;;2.06;100.00;100452.00;4761560;30;20514;-75
2024/01/16 15:02:50;;;;;;;6.87;1.77;;;;;;;2.06;100.00;100446.47;4758185;30;20302;-73
2024/01/16 15:05:16;;;;;;;4.55;2.08;;;;;;;2.06;100.00;100443.72;4758763;30;20816;-74
2024/01/16 15:07:42;;;;;;;7.55;2.05;;;;;;;1.90;100.00;100440.69;4756052;30;20036;-73
2024/01/16 15:10:09;;;;;;;1.85;1.48;;;;;;;1.84;100.00;100431.78;4762372;30;20050;-74
2024/01/16 15:12:35;;;;;;;3.28;1.88;;;;;;;1.81;100.00;100440.72;4760684;30;20580;-73
2024/01/16 15:15:03;;;;;;;6.25;2.13;;;;;;;1.82;100.00;100432.13;4761854;30;20039;-75
2024/01/16 15:17:29;;;;;;;2.63;1.50;;;;;;;1.83;100.00;100443.97;4761386;30;20028;-72
2024/01/16 15:19:54;;;;;;;3.35;1.63;;;;;;;1.72;100.00;100438.00;4758790;30;20035;-73
2024/01/16 15:22:19;;;;;;;2.38;1.52;;;;;;;1.73;100.00;100439.63;4760398;30;20118;-74
2024/01/16 15:24:46;;;;;;;5.55;2.03;;;;;;;1.66;100.00;100438.50;4773986;29;20410;-74
2024/01/16 15:27:11;;;;;;;3.20;1.67;;;;;;;1.69;100.00;100437.84;4761018;30;20036;-74
2024/01/16 15:29:37;;;;;;;3.47;1.58;;;;;;;1.66;100.00;100439.28;4758365;30;20042;-74
2024/01/16 15:32:02;;;;;;;3.20;1.40;;;;;;;1.74;100.00;100429.38;4752531;30;20115;-73
2024/01/16 15:34:27;;;;;;;6.50;1.60;;;;;;;1.62;100.00;100416.25;4758016;30;20059;-75
2024/01/16 15:36:53;;;;;;;3.75;1.88;;;;;;;1.76;100.00;100418.84;4758276;30;20051;-75
2024/01/16 15:39:19;;;;;;;2.60;1.75;;;;;;;1.71;100.00;100417.06;4757505;30;20032;-75
2024/01/16 15:41:44;;;;;;;2.63;1.95;;;;;;;1.74;100.00;100419.16;4765892;29;20027;-75
2024/01/16 15:44:10;;;;;;;3.35;1.80;;;;;;;1.85;100.00;100413.28;4756543;30;20495;-74
2024/01/16 15:47:02;;;;;;;5.63;2.35;;;;;;;1.81;100.00;100416.72;4762110;30;20494;-74
2024/01/16 15:49:29;;;;;;;7.65;2.45;;;;;;;1.72;100.00;100421.44;4757702;30;20563;-74
2024/01/16 15:51:55;;;;;;;6.63;2.75;;;;;;;1.64;100.00;100416.75;4762505;30;20497;-76
2024/01/16 15:54:21;;;;;;;6.45;2.80;;;;;;;1.69;100.00;100416.59;4764797;30;20085;-74
2024/01/16 15:56:47;;;;;;;9.27;4.28;;;;;;;1.56;100.00;100417.56;4756458;30;20529;-76
2024/01/16 15:59:13;;;;;;;5.50;3.58;;;;;;;1.62;100.00;100410.75;4759975;30;20047;-73
2024/01/16 16:01:39;;;;;;;4.88;2.80;;;;;;;1.63;100.00;100413.19;4769557;29;20398;-74
2024/01/16 16:04:05;;;;;;;4.15;3.17;;;;;;;1.65;100.00;100410.09;4762735;29;20031;-74
2024/01/16 16:06:38;;;;;;;5.57;3.15;;;;;;;1.46;100.00;100416.00;4763309;30;20452;-74
2024/01/16 16:09:06;;;;;;;8.25;3.78;;;;;;;1.53;100.00;100405.25;4758152;30;20511;-74
2024/01/16 16:11:49;;;;;;;12.10;3.80;;;;;;;2.42;100.00;100404.53;4756373;30;20039;-72
2024/01/16 16:14:15;;;;;;;5.68;3.58;;;;;;;1.64;100.00;100416.75;4757919;30;20028;-75
2024/01/16 16:16:43;;;;;;;6.63;4.03;;;;;;;1.34;100.00;100421.38;4759031;30;20035;-73
2024/01/16 16:19:08;;;;;;;10.68;4.20;;;;;;;1.26;100.00;100414.72;4762700;30;20044;-76
2024/01/16 16:21:34;;;;;;;6.30;3.33;;;;;;;1.17;100.00;100413.94;4758751;30;20035;-73
2024/01/16 16:24:00;;;;;;;6.30;3.45;;;;;;;1.11;100.00;100404.19;4757566;30;20038;-73
2024/01/16 16:26:55;;;;;;;4.00;2.83;;;;;;;1.73;100.00;100413.94;4762690;30;20394;-73
2024/01/16 16:29:20;;;;;;;4.43;3.25;;;;;;;1.40;100.00;100417.31;4756628;30;20079;-75
2024/01/16 16:31:46;;;;;;;6.40;3.58;;;;;;;1.08;100.00;100418.66;4758679;30;20083;-74
2024/01/16 16:34:14;;;;;;;16.80;3.67;;;;;;;0.88;100.00;100426.41;4754677;30;20043;-74
2024/01/16 16:36:43;;;;;;;9.15;4.45;;;;;;;0.92;100.00;100421.88;4759662;29;20113;-76
2024/01/16 16:39:08;;;;;;;6.47;3.92;;;;;;;0.98;100.00;100420.56;4761845;30;20173;-76
2024/01/16 16:41:36;;;;;;;7.70;4.25;;;;;;;1.04;100.00;100429.50;4762019;30;20040;-76
2024/01/16 16:44:01;;;;;;;7.45;4.40;;;;;;;0.99;100.00;100426.88;4761529;30;20032;-76
2024/01/16 16:46:27;;;;;;;10.23;4.43;;;;;;;0.92;100.00;100415.56;4758434;30;20515;-77
2024/01/16 16:48:53;;;;;;;8.77;4.07;;;;;;;1.14;100.00;100420.06;4759393;30;20078;-76
2024/01/16 16:51:23;;;;;;;8.98;4.32;;;;;;;0.89;100.00;100417.03;4761211;30;20408;-76
2024/01/16 16:53:49;;;;;;;9.60;4.38;;;;;;;1.06;100.00;100427.22;4760240;30;20456;-76
2024/01/16 16:56:19;;;;;;;7.05;4.13;;;;;;;0.83;100.00;100415.56;4761862;30;20043;-76
2024/01/16 16:58:46;;;;;;;15.65;5.82;;;;;;;0.80;100.00;100418.94;4773262;29;20059;-75
2024/01/16 17:01:14;;;;;;;6.40;4.03;;;;;;;0.81;100.00;100417.81;4760324;30;20170;-75
2024/01/16 17:03:41;;;;;;;7.28;4.03;;;;;;;0.75;100.00;100410.84;4759673;30;20043;-76
2024/01/16 17:06:10;;;;;;;5.07;3.28;;;;;;;0.87;100.00;100413.78;4766052;30;20032;-75
2024/01/16 17:08:37;;;;;;;9.70;4.20;;;;;;;0.74;100.00;100414.75;4760548;30;20061;-75
2024/01/16 17:11:09;;;;;;;7.82;4.28;;;;;;;0.70;100.00;100422.03;4761063;30;20903;-76